Tiempo atmosférico en la estación meteorológica de Aller, Asturias (750 m.)



Fecha
DESCASC
Temp. máxima en grados centígrados (hora)
DESCASC
Temp. mínima en grados centígrados (hora)
DESCASC
Temp. media en grados centígrados
DESCASC
Racha de viento máxima en m/sg (hora)
DESCASC
Velocidad máxima media en intervalos de 10 minutos(hora)
DESCASC
Precipitaciones diarias en mm
DESCASC
Precipitaciones de 00:00 a 06:00 en mm
DESCASC
Precipitaciones de 06:00 a 12:00 en mm
DESCASC
Precipitaciones de 12:00 a 18:00 en mm
DESCASC
Precipitaciones de 18:00 a 24:00 en mm
DESCASC

Gráficas

Temp. máximas Temp. mínimas Temp. medias Precipitaciones Rachas de viento máximas Velocidades máximas media en intervalos de 10 minutos

Datos horarios

Fecha y hora oficial Temperatura (ºC) Velocidad del viento (km/h) Dirección del viento Racha (km/h) Dirección de racha Precipitación (mm) Presión (hPa) Tendencia (hPa) Humedad (%)
2020-09-19 23:00:00 12.7 4 Sudeste 9 Sudeste 0 -- -- 95
2020-09-19 22:00:00 13.3 2 Sudeste 5 Sudeste 0 -- -- 94
2020-09-19 21:00:00 14.6 0 Calma 7 Sudeste 0 -- -- 92
2020-09-19 20:00:00 15.9 0 Calma 7 Sudeste 0 -- -- 85
2020-09-19 19:00:00 16.2 5 Sudeste 10 Sudeste 0 -- -- 84
2020-09-19 18:00:00 17.4 2 Sur 4 Sudeste 0 -- -- 77
2020-09-19 17:00:00 16.9 2 Sur 4 Oeste 0 -- -- 81
2020-09-19 16:00:00 15.9 0 Calma 3 Noroeste 0 -- -- 88
2020-09-19 15:00:00 15.3 0 Calma 4 Sur 0 -- -- 90
2020-09-19 14:00:00 15 0 Calma 8 Este 0.2 -- -- 92
2020-09-19 13:00:00 15.8 0 Calma 7 Sudeste 0 -- -- 87
2020-09-19 12:00:00 15.3 0 Calma 4 Noroeste 0 -- -- 91
2020-09-19 11:00:00 15 2 Noroeste 7 Sudeste 0 -- -- 88
2020-09-19 10:00:00 13.1 3 Sudeste 8 Sudeste 0 -- -- 93
2020-09-19 09:00:00 11.6 0 Calma 6 Sudeste 0 -- -- 96
2020-09-19 08:00:00 11.6 2 Norte 4 Noroeste 0 -- -- 94
2020-09-19 07:00:00 12.9 0 Calma 10 Sudeste 0 -- -- 93
2020-09-19 06:00:00 13.5 4 Sur 14 Sudoeste 0 -- -- 85
2020-09-19 05:00:00 14 7 Sudeste 17 Sudeste 0 -- -- 82
2020-09-19 04:00:00 13.4 3 Norte 9 Sudoeste 0 -- -- 96
2020-09-19 03:00:00 13.8 0 Calma 10 Este 0.2 -- -- 94
2020-09-19 02:00:00 14.3 3 Sudeste 11 Sudeste 0 -- -- 90
2020-09-19 01:00:00 14.7 5 Sudeste 9 Sudeste 0 -- -- 97
2020-09-19 00:00:00 14.9 0 Calma 9 Norte 0 -- -- 98
2020-09-18 23:00:00 14.7 3 Noroeste 8 Noroeste 0 -- -- 98
2020-09-18 22:00:00 14.8 0 Calma 5 Sudeste 0 -- -- 95
2020-09-18 21:00:00 15.5 0 Calma 10 Norte 0 -- -- 92
2020-09-18 20:00:00 17 6 Norte 15 Noroeste 0 -- -- 87
2020-09-18 19:00:00 18.7 0 Calma 5 Sudeste 0 -- -- 80
2020-09-18 18:00:00 19.3 0 Calma 11 Sudeste 0 -- -- 72
2020-09-18 17:00:00 20.9 2 Sudoeste 8 Noroeste 0 -- -- 63
2020-09-18 16:00:00 21.4 3 Sur 15 Sudeste 0 -- -- 53
2020-09-18 15:00:00 19.2 3 Sudeste 15 Sur 0 -- -- 75
2020-09-18 14:00:00 19.4 5 Sudeste 26 Sudeste 0 -- -- 61
2020-09-18 13:00:00 20.6 5 Nordeste 31 Este 0 -- -- 54
2020-09-18 12:00:00 19.1 9 Sudeste 36 Sudeste 0 -- -- 63
2020-09-18 11:00:00 16.6 7 Sudeste 22 Este 0 -- -- 81
2020-09-18 10:00:00 14.4 6 Este 17 Sudeste 0.2 -- -- 89
2020-09-18 09:00:00 13.9 4 Sudeste 9 Sudeste 1 -- -- 98
2020-09-18 08:00:00 14 3 Norte 14 Norte 1.8 -- -- 99
2020-09-18 07:00:00 14.1 3 Norte 12 Sudeste 4.8 -- -- 97
2020-09-18 06:00:00 14.3 5 Sudeste 9 Este 3 -- -- 98
2020-09-18 05:00:00 14.7 3 Sudeste 8 Sur 0.6 -- -- 97
2020-09-18 04:00:00 15.1 2 Nordeste 7 Oeste 0 -- -- 98
2020-09-18 03:00:00 15.4 0 Calma 7 Sur 2 -- -- 98
2020-09-18 02:00:00 15.5 4 Norte 12 Norte 0.8 -- -- 97
2020-09-18 01:00:00 15.7 0 Calma 21 Este 11.8 -- -- 96
2020-09-18 00:00:00 17.2 4 Sudeste 14 Norte 5.2 -- -- 92
2020-09-17 23:00:00 18.7 5 Noroeste 15 Noroeste 0 -- -- 79
2020-09-17 22:00:00 20 4 Noroeste 26 Sudeste 0 -- -- 69
2020-09-17 21:00:00 18.5 4 Norte 15 Este 0 -- -- 79
2020-09-17 20:00:00 22.5 6 Sudeste 26 Este 0 -- -- 58
2020-09-17 19:00:00 23.3 10 Sudeste 22 Sur 0 -- -- 54
2020-09-17 18:00:00 23.8 6 Sudeste 21 Sur 0 -- -- 53
2020-09-17 17:00:00 23.9 4 Sur 14 Sur 0 -- -- 52
2020-09-17 16:00:00 22.3 2 Noroeste 5 Noroeste 0 -- -- 63
2020-09-17 15:00:00 22.9 5 Sur 22 Sudeste 0 -- -- 56
2020-09-17 14:00:00 23.4 4 Oeste 19 Sur 0 -- -- 57
2020-09-17 13:00:00 24 5 Sur 19 Sudeste 0 -- -- 52
2020-09-17 12:00:00 22.4 3 Noroeste 13 Noroeste 0 -- -- 64
2020-09-17 11:00:00 21.3 0 Calma 5 Noroeste 0 -- -- 74
2020-09-17 10:00:00 16.8 2 Sudeste 6 Este 0 -- -- 90
2020-09-17 09:00:00 16.2 3 Noroeste 9 Sudeste 0 -- -- 86
2020-09-17 08:00:00 16.2 5 Sudeste 10 Sudeste 0 -- -- 83
2020-09-17 07:00:00 16.4 5 Sudeste 10 Sudeste 0 -- -- 86
2020-09-17 06:00:00 15.6 2 Sudeste 14 Sudeste 0 -- -- 95
2020-09-17 05:00:00 14.7 5 Sudeste 8 Este 0 -- -- 94
2020-09-17 04:00:00 14.6 0 Calma 10 Sudeste 0 -- -- 92
2020-09-17 03:00:00 15.2 7 Sudeste 10 Sudeste 0 -- -- 88
2020-09-17 02:00:00 14.7 3 Sudeste 8 Sudeste 0 -- -- 89
2020-09-17 01:00:00 15 5 Sudeste 9 Sudeste 0 -- -- 88
2020-09-17 00:00:00 15.2 7 Sudeste 9 Sudeste 0 -- -- 89
2020-09-16 23:00:00 16.4 3 Sudeste 9 Sudeste 0 -- -- 89
2020-09-16 22:00:00 17.3 5 Sudeste 9 Sudeste 0 -- -- 88
2020-09-16 21:00:00 19.1 3 Sudeste 5 Sur 0 -- -- 84
2020-09-16 20:00:00 21.8 0 Calma 9 Norte 0 -- -- 76
2020-09-16 19:00:00 23.4 4 Norte 10 Noroeste 0 -- -- 70
2020-09-16 18:00:00 25.1 6 Noroeste 17 Noroeste 0 -- -- 62
2020-09-16 17:00:00 27.5 6 Norte 17 Norte 0 -- -- 46
2020-09-16 16:00:00 29.7 5 Sudeste 19 Sur 0 -- -- 28
2020-09-16 15:00:00 28.5 6 Sur 17 Sur 0 -- -- 31
2020-09-16 14:00:00 27.4 4 Sur 18 Sudeste 0 -- -- 31
2020-09-16 13:00:00 26.6 5 Sur 18 Sur 0 -- -- 34
2020-09-16 12:00:00 23.1 4 Noroeste 10 Noroeste 0 -- -- 50
2020-09-16 11:00:00 17.1 2 Este 10 Sudeste 0 -- -- 82
2020-09-16 10:00:00 12.9 4 Este 13 Sudeste 0 -- -- 89
2020-09-16 09:00:00 12.4 6 Sudeste 12 Sudeste 0 -- -- 88
2020-09-16 08:00:00 12.4 6 Sudeste 14 Sudeste 0 -- -- 88
2020-09-16 07:00:00 12.1 5 Sudeste 12 Sudeste 0 -- -- 90
2020-09-16 06:00:00 11.9 3 Sudeste 11 Sudeste 0 -- -- 92
2020-09-16 05:00:00 11.6 0 Calma 9 Sudeste 0 -- -- 94
2020-09-16 04:00:00 11.6 4 Sudeste 10 Sudeste 0 -- -- 95
2020-09-16 03:00:00 12 3 Sudeste 7 Sudeste 0 -- -- 95
2020-09-16 02:00:00 13.2 0 Calma 11 Sudeste 0 -- -- 93
2020-09-16 01:00:00 14.4 6 Sudeste 9 Sudeste 0 -- -- 92
2020-09-16 00:00:00 16.2 3 Sudeste 7 Sudeste 0 -- -- 92
2020-09-15 23:00:00 16.9 0 Calma 8 Sudeste 0 -- -- 92
2020-09-15 22:00:00 16.9 0 Calma 5 Sudeste 0 -- -- 92
2020-09-15 21:00:00 18.2 0 Calma 9 Norte 0 -- -- 88
2020-09-15 20:00:00 20.2 5 Norte 15 Noroeste 0 -- -- 82
2020-09-15 19:00:00 21.7 5 Norte 17 Norte 0 -- -- 75
2020-09-15 18:00:00 23.5 7 Norte 16 Noroeste 0 -- -- 68
2020-09-15 17:00:00 25.4 0 Calma 19 Sudeste 0 -- -- 51
2020-09-15 16:00:00 25.3 5 Sur 17 Sur 0 -- -- 46
2020-09-15 15:00:00 26.3 4 Norte 14 Sudeste 0 -- -- 44
2020-09-15 14:00:00 24.9 9 Sudeste 26 Sudeste 0 -- -- 48
2020-09-15 13:00:00 24.8 6 Sur 20 Sudeste 0 -- -- 48
2020-09-15 12:00:00 22.3 4 Sudeste 16 Sudeste 0 -- -- 61
2020-09-15 11:00:00 17.7 5 Este 15 Este 0 -- -- 87
2020-09-15 10:00:00 13.3 0 Calma 7 Oeste 0 -- -- 100
2020-09-15 09:00:00 12.4 3 Este 7 Este 0 -- -- 99
2020-09-15 08:00:00 12.3 2 Este 10 Sudeste 0 -- -- 98
2020-09-15 07:00:00 12.9 0 Calma 10 Este 0 -- -- 98
2020-09-15 06:00:00 13.3 0 Calma 11 Noroeste 0 -- -- 98
2020-09-15 05:00:00 13.5 3 Norte 11 Oeste 0 -- -- 98
2020-09-15 04:00:00 14 3 Norte 8 Oeste 0 -- -- 98
2020-09-15 03:00:00 14.5 0 Calma 8 Norte 0.6 -- -- 97
2020-09-15 02:00:00 14.7 2 Sudeste 7 Sur 0 -- -- 97
2020-09-15 01:00:00 14.3 0 Calma 7 Noroeste 0 -- -- 96
2020-09-15 00:00:00 15.3 0 Calma 10 Norte 0 -- -- 90
2020-09-14 23:00:00 16.4 0 Calma 8 Noroeste 0 -- -- 84
2020-09-14 22:00:00 17.8 0 Calma 12 Nordeste 0 -- -- 77
2020-09-14 21:00:00 19.3 5 Este 22 Noroeste 0 -- -- 71
2020-09-14 20:00:00 21.2 6 Norte 21 Noroeste 0 -- -- 66
2020-09-14 19:00:00 23.5 0 Calma 19 Sur 0 -- -- 62
2020-09-14 18:00:00 26.1 9 Sur 29 Sur 0 -- -- 43
2020-09-14 17:00:00 27.2 7 Sur 26 Sudeste 0 -- -- 43
2020-09-14 16:00:00 26.6 5 Sur 24 Sur 0 -- -- 44
2020-09-14 15:00:00 25 6 Oeste 25 Sur 0 -- -- 48
2020-09-14 14:00:00 23.3 4 Sudeste 14 Sur 0 -- -- 61
2020-09-14 13:00:00 24.1 3 Noroeste 8 Noroeste 0 -- -- 59
2020-09-14 12:00:00 24 3 Noroeste 16 Noroeste 0 -- -- 57
2020-09-14 11:00:00 24.6 7 Sur 24 Sudeste 0 -- -- 45
2020-09-14 10:00:00 23.7 9 Sudeste 29 Sudeste 0 -- -- 46
2020-09-14 09:00:00 22.3 9 Sudeste 28 Sudeste 0 -- -- 48
2020-09-14 08:00:00 20.2 5 Este 15 Sur 0 -- -- 56
2020-09-14 07:00:00 21.4 6 Sudeste 24 Sur 0 -- -- 48
2020-09-14 06:00:00 16.8 3 Sudeste 15 Sudeste 0 -- -- 69
2020-09-14 05:00:00 15.7 3 Sudeste 11 Sudeste 0 -- -- 76
2020-09-14 04:00:00 15.3 0 Calma 6 Sur 0 -- -- 76
2020-09-14 03:00:00 16.5 4 Noroeste 13 Sudeste 0 -- -- 70
2020-09-14 02:00:00 16.3 4 Sudeste 13 Sudeste 0 -- -- 71
2020-09-14 01:00:00 15.6 3 Sudeste 9 Sudeste 0 -- -- 75
2020-09-14 00:00:00 16.9 6 Sudeste 11 Sudeste 0 -- -- 69
2020-09-13 23:00:00 16.6 3 Sudeste 11 Sudeste 0 -- -- 75
2020-09-13 22:00:00 17.4 8 Sudeste 12 Sudeste 0 -- -- 70
2020-09-13 21:00:00 19.4 4 Sudeste 10 Sudeste 0 -- -- 67
2020-09-13 20:00:00 22.4 4 Sur 13 Sudeste 0 -- -- 60
2020-09-13 19:00:00 24 4 Sudeste 10 Sudeste 0 -- -- 60
2020-09-13 18:00:00 25.8 3 Sur 18 Este 0 -- -- 49
2020-09-13 17:00:00 30.8 4 Sur 13 Este 0 -- -- 31
2020-09-13 16:00:00 32.6 4 Noroeste 18 Noroeste 0 -- -- 32
2020-09-13 15:00:00 32.2 5 Noroeste 19 Noroeste 0 -- -- 34
2020-09-13 14:00:00 31.6 4 Noroeste 12 Noroeste 0 -- -- 39
2020-09-13 13:00:00 29.6 3 Noroeste 8 Noroeste 0 -- -- 42
2020-09-13 12:00:00 24.8 3 Norte 5 Noroeste 0 -- -- 56
2020-09-13 11:00:00 17.8 2 Este 4 Este 0 -- -- 75
2020-09-13 10:00:00 12.2 0 Calma 10 Sudeste 0 -- -- 90
2020-09-13 09:00:00 12 3 Sudeste 11 Sudeste 0 -- -- 84
2020-09-13 08:00:00 10.6 3 Sudeste 10 Sudeste 0 -- -- 90
2020-09-13 07:00:00 10.6 0 Calma 7 Sudeste 0 -- -- 90
2020-09-13 06:00:00 10.8 2 Sur 6 Sudeste 0 -- -- 89
2020-09-13 05:00:00 10.9 0 Calma 7 Sur 0 -- -- 89
2020-09-13 04:00:00 11.2 5 Sudeste 9 Sur 0 -- -- 88
2020-09-13 03:00:00 11.4 5 Sudeste 10 Sudeste 0 -- -- 89
2020-09-13 02:00:00 12.2 6 Sudeste 12 Sur 0 -- -- 88
2020-09-13 01:00:00 13.2 3 Sudeste 13 Sur 0 -- -- 88
2020-09-13 00:00:00 13.9 4 Sudeste 9 Sudeste 0 -- -- 91
2020-09-12 23:00:00 15.1 7 Sudeste 12 Sudeste 0 -- -- 91
2020-09-12 22:00:00 16.3 7 Sudeste 11 Sudeste 0 -- -- 88
2020-09-12 21:00:00 17.7 7 Sudeste 9 Sudeste 0 -- -- 85
2020-09-12 20:00:00 19.6 5 Sudeste 8 Sudeste 0 -- -- 83
2020-09-12 19:00:00 22.5 0 Calma 14 Noroeste 0 -- -- 74
2020-09-12 18:00:00 25.6 7 Noroeste 22 Noroeste 0 -- -- 64
2020-09-12 17:00:00 27.6 9 Noroeste 20 Noroeste 0 -- -- 57
2020-09-12 16:00:00 27.4 10 Noroeste 22 Noroeste 0 -- -- 55
2020-09-12 15:00:00 26.8 8 Noroeste 18 Noroeste 0 -- -- 58
2020-09-12 14:00:00 25.7 8 Noroeste 13 Noroeste 0 -- -- 53
2020-09-12 13:00:00 24 7 Noroeste 14 Oeste 0 -- -- 55
2020-09-12 12:00:00 21 3 Oeste 10 Noroeste 0 -- -- 54
2020-09-12 11:00:00 15.7 3 Norte 9 Noroeste 0 -- -- 81
2020-09-12 10:00:00 10.5 0 Calma 10 Sudeste 0 -- -- 95
2020-09-12 09:00:00 9.8 3 Sudeste 9 Sudeste 0 -- -- 94
2020-09-12 08:00:00 9.9 3 Sudeste 10 Sudeste 0 -- -- 95
2020-09-12 07:00:00 10 3 Sudeste 12 Sudeste 0 -- -- 95
2020-09-12 06:00:00 10.2 5 Sudeste 10 Sudeste 0 -- -- 95
2020-09-12 05:00:00 10.4 6 Sudeste 9 Sudeste 0 -- -- 95
2020-09-12 04:00:00 11 6 Sudeste 10 Sudeste 0 -- -- 94
2020-09-12 03:00:00 11.5 4 Sudeste 9 Sudeste 0 -- -- 93
2020-09-12 02:00:00 12.4 3 Sudeste 12 Sudeste 0 -- -- 92
2020-09-12 01:00:00 13 5 Sudeste 10 Sudeste 0 -- -- 91
2020-09-12 00:00:00 14.4 7 Sudeste 10 Sudeste 0 -- -- 89
2020-09-11 23:00:00 15.3 6 Sudeste 10 Sudeste 0 -- -- 89
2020-09-11 22:00:00 16.4 6 Sudeste 9 Sudeste 0 -- -- 87
2020-09-11 21:00:00 17.3 5 Sudeste 9 Sudeste 0 -- -- 84
2020-09-11 20:00:00 19.5 6 Sudeste 9 Sudeste 0 -- -- 79
2020-09-11 19:00:00 22.4 2 Norte 18 Noroeste 0 -- -- 70
2020-09-11 18:00:00 26.1 6 Noroeste 19 Noroeste 0 -- -- 55
2020-09-11 17:00:00 27.5 11 Noroeste 22 Noroeste 0 -- -- 53
2020-09-11 16:00:00 27.9 9 Noroeste 23 Noroeste 0 -- -- 49
2020-09-11 15:00:00 27.4 8 Noroeste 19 Noroeste 0 -- -- 51
2020-09-11 14:00:00 26.4 10 Noroeste 21 Oeste 0 -- -- 50
2020-09-11 13:00:00 24.8 6 Noroeste 14 Norte 0 -- -- 57
2020-09-11 12:00:00 22.3 3 Noroeste 6 Noroeste 0 -- -- 63
2020-09-11 11:00:00 15.9 0 Calma 3 Este 0 -- -- 92
2020-09-11 10:00:00 10.5 2 Sudeste 8 Sudeste 0 -- -- 99
2020-09-11 09:00:00 9.6 3 Sudeste 10 Sudeste 0 -- -- 98
2020-09-11 08:00:00 9.2 3 Sudeste 8 Sudeste 0 -- -- 96
2020-09-11 07:00:00 9.8 5 Sudeste 10 Sudeste 0 -- -- 95
2020-09-11 06:00:00 9.8 7 Sudeste 11 Sudeste 0 -- -- 95
2020-09-11 05:00:00 10.3 5 Sudeste 12 Sudeste 0 -- -- 93
2020-09-11 04:00:00 10.2 4 Sudeste 8 Sudeste 0 -- -- 93
2020-09-11 03:00:00 11 6 Sudeste 10 Sudeste 0 -- -- 93
2020-09-11 02:00:00 11.4 4 Sudeste 9 Este 0 -- -- 93
2020-09-11 01:00:00 12.1 4 Sudeste 9 Sudeste 0 -- -- 94
2020-09-11 00:00:00 13.2 3 Sudeste 10 Sudeste 0 -- -- 93
2020-09-10 23:00:00 14 5 Sudeste 8 Sudeste 0 -- -- 92
2020-09-10 22:00:00 14.8 6 Sudeste 9 Sudeste 0 -- -- 91
2020-09-10 21:00:00 16.3 5 Sudeste 8 Sudeste 0 -- -- 86
2020-09-10 20:00:00 18.2 4 Sudeste 9 Sudeste 0 -- -- 81
2020-09-10 19:00:00 21.1 2 Noroeste 10 Noroeste 0 -- -- 70
2020-09-10 18:00:00 25.3 5 Noroeste 19 Noroeste 0 -- -- 55
2020-09-10 17:00:00 25.8 9 Noroeste 19 Noroeste 0 -- -- 55
2020-09-10 16:00:00 25.6 9 Noroeste 22 Noroeste 0 -- -- 55
2020-09-10 15:00:00 25.3 9 Noroeste 19 Noroeste 0 -- -- 56
2020-09-10 14:00:00 24.8 10 Noroeste 22 Noroeste 0 -- -- 52
2020-09-10 13:00:00 23.7 6 Noroeste 10 Noroeste 0 -- -- 54
2020-09-10 12:00:00 20.8 4 Noroeste 9 Noroeste 0 -- -- 61
2020-09-10 11:00:00 15.8 2 Noroeste 9 Sudeste 0 -- -- 83
2020-09-10 10:00:00 10.8 6 Sudeste 11 Sudeste 0 -- -- 96
2020-09-10 09:00:00 9.5 4 Sudeste 9 Sudeste 0 -- -- 95
2020-09-10 08:00:00 9.4 4 Sudeste 10 Sudeste 0 -- -- 94
2020-09-10 07:00:00 9.7 6 Sudeste 14 Sudeste 0 -- -- 93
2020-09-10 06:00:00 10.3 6 Sudeste 12 Sudeste 0 -- -- 93
2020-09-10 05:00:00 11.1 5 Sudeste 11 Sudeste 0 -- -- 92
2020-09-10 04:00:00 12.4 7 Sudeste 12 Sudeste 0 -- -- 88
2020-09-10 03:00:00 14.2 8 Sudeste 12 Sudeste 0 -- -- 83
2020-09-10 02:00:00 13.9 6 Sudeste 9 Sudeste 0 -- -- 93
2020-09-10 01:00:00 16 5 Sudeste 7 Sudeste 0 -- -- 92
2020-09-10 00:00:00 16.2 0 Calma 3 Noroeste 0 -- -- 94
2020-09-09 23:00:00 15.9 0 Calma 6 Sudeste 0 -- -- 92
2020-09-09 22:00:00 15.6 4 Sudeste 9 Sudeste 0 -- -- 91
2020-09-09 21:00:00 16.3 4 Sudeste 8 Sudeste 0 -- -- 88
2020-09-09 20:00:00 18 3 Sudeste 7 Sudeste 0 -- -- 83
2020-09-09 19:00:00 20.9 3 Noroeste 18 Noroeste 0 -- -- 72
2020-09-09 18:00:00 24.9 9 Noroeste 20 Noroeste 0 -- -- 56
2020-09-09 17:00:00 26 7 Noroeste 18 Noroeste 0 -- -- 50
2020-09-09 16:00:00 25.5 9 Noroeste 20 Noroeste 0 -- -- 53
2020-09-09 15:00:00 25.1 10 Noroeste 22 Noroeste 0 -- -- 54
2020-09-09 14:00:00 24.3 8 Norte 18 Noroeste 0 -- -- 55
2020-09-09 13:00:00 22.9 8 Noroeste 14 Noroeste 0 -- -- 55
2020-09-09 12:00:00 20 5 Norte 11 Noroeste 0 -- -- 59
2020-09-09 11:00:00 13.9 0 Calma 4 Sudeste 0 -- -- 92
2020-09-09 10:00:00 8.6 2 Sudeste 9 Sudeste 0 -- -- 98
2020-09-09 09:00:00 8.2 3 Sudeste 11 Este 0 -- -- 96
2020-09-09 08:00:00 7.8 3 Sudeste 10 Sudeste 0 -- -- 96
2020-09-09 07:00:00 8 2 Sudeste 11 Sudeste 0 -- -- 96
2020-09-09 06:00:00 8.3 2 Sudeste 10 Sudeste 0 -- -- 95
2020-09-09 05:00:00 9.1 4 Sudeste 12 Sudeste 0 -- -- 94
2020-09-09 04:00:00 9.5 6 Sudeste 10 Sudeste 0 -- -- 95
2020-09-09 03:00:00 9.7 5 Sudeste 10 Sudeste 0 -- -- 96
2020-09-09 02:00:00 10.3 5 Sudeste 9 Sudeste 0 -- -- 96
2020-09-09 01:00:00 10.6 6 Sudeste 10 Sudeste 0 -- -- 96
2020-09-09 00:00:00 11.6 5 Sudeste 9 Sudeste 0 -- -- 95
2020-09-08 23:00:00 12.3 5 Sudeste 9 Sudeste 0 -- -- 93
2020-09-08 22:00:00 13.2 5 Sudeste 8 Sudeste 0 -- -- 92
2020-09-08 21:00:00 14.8 5 Sudeste 8 Sudeste 0 -- -- 87
2020-09-08 20:00:00 16.7 6 Sudeste 8 Sudeste 0 -- -- 83
2020-09-08 19:00:00 19.5 0 Calma 12 Noroeste 0 -- -- 70
2020-09-08 18:00:00 23.6 5 Noroeste 14 Noroeste 0 -- -- 55
2020-09-08 17:00:00 24.3 7 Noroeste 17 Noroeste 0 -- -- 53
2020-09-08 16:00:00 23.5 7 Noroeste 17 Noroeste 0 -- -- 55
2020-09-08 15:00:00 22.6 9 Noroeste 18 Noroeste 0 -- -- 57
2020-09-08 14:00:00 21.4 9 Noroeste 18 Noroeste 0 -- -- 58
2020-09-08 13:00:00 20.5 5 Noroeste 12 Noroeste 0 -- -- 54
2020-09-08 12:00:00 17.8 5 Noroeste 12 Noroeste 0 -- -- 66
2020-09-08 11:00:00 12.3 3 Nordeste 8 Sudeste 0 -- -- 86
2020-09-08 10:00:00 7.5 3 Sudeste 10 Sudeste 0 -- -- 93
2020-09-08 09:00:00 6.6 5 Sudeste 10 Sudeste 0 -- -- 90
2020-09-08 08:00:00 6.4 5 Sudeste 10 Sudeste 0 -- -- 90
2020-09-08 07:00:00 6.7 6 Sudeste 10 Sudeste 0 -- -- 90
2020-09-08 06:00:00 7 5 Sudeste 10 Este 0 -- -- 92
2020-09-08 05:00:00 7.5 3 Sudeste 9 Sudeste 0 -- -- 93
2020-09-08 04:00:00 8.2 5 Sudeste 9 Sur 0 -- -- 93
2020-09-08 03:00:00 9.1 5 Sudeste 9 Sudeste 0 -- -- 93
2020-09-08 02:00:00 10 3 Sudeste 9 Sudeste 0 -- -- 93
2020-09-08 01:00:00 10.8 0 Calma 9 Sudeste 0 -- -- 94
2020-09-08 00:00:00 11 4 Sudeste 8 Sudeste 0 -- -- 95
2020-09-07 23:00:00 12.3 2 Sudeste 3 Sudeste 0 -- -- 90
2020-09-07 22:00:00 14.8 0 Calma 9 Norte 0 -- -- 85
2020-09-07 21:00:00 15.8 5 Norte 10 Norte 0 -- -- 81
2020-09-07 20:00:00 16.5 3 Norte 14 Noroeste 0 -- -- 78
2020-09-07 19:00:00 17.7 7 Noroeste 15 Noroeste 0 -- -- 71
2020-09-07 18:00:00 22.1 6 Noroeste 15 Noroeste 0 -- -- 55
2020-09-07 17:00:00 22.1 6 Noroeste 15 Noroeste 0 -- -- 56
2020-09-07 16:00:00 22 6 Noroeste 18 Noroeste 0 -- -- 53
2020-09-07 15:00:00 20.4 8 Noroeste 18 Noroeste 0 -- -- 57
2020-09-07 14:00:00 20.5 7 Noroeste 18 Noroeste 0 -- -- 57
2020-09-07 13:00:00 18.7 7 Noroeste 18 Noroeste 0 -- -- 62
2020-09-07 12:00:00 16.6 6 Noroeste 14 Noroeste 0 -- -- 64
2020-09-07 11:00:00 13.3 3 Oeste 8 Norte 0 -- -- 82
2020-09-07 10:00:00 11.3 0 Calma 5 Norte 0 -- -- 96
2020-09-07 09:00:00 11.1 0 Calma 4 Noroeste 0 -- -- 96
2020-09-07 08:00:00 11 0 Calma 4 Noroeste 0 -- -- 96
2020-09-07 07:00:00 10.8 0 Calma 3 Noroeste 0 -- -- 96
2020-09-07 06:00:00 10.7 0 Calma 3 Sudeste 0 -- -- 95
2020-09-07 05:00:00 10.4 3 Sudeste 5 Sudeste 0 -- -- 94
2020-09-07 04:00:00 9.9 2 Sur 7 Sudeste 0 -- -- 96
2020-09-07 03:00:00 10.3 3 Sudeste 6 Sudeste 0 -- -- 93
2020-09-07 02:00:00 11.5 2 Sudeste 5 Sur 0 -- -- 96
2020-09-07 01:00:00 11.6 0 Calma 3 Noroeste 0 -- -- 96
2020-09-07 00:00:00 12.2 0 Calma 3 Nordeste 0 -- -- 94
2020-09-06 23:00:00 12.8 0 Calma 4 Noroeste 0 -- -- 93
2020-09-06 22:00:00 13.3 3 Norte 6 Norte 0 -- -- 89
2020-09-06 21:00:00 14.3 3 Norte 14 Noroeste 0 -- -- 86
2020-09-06 20:00:00 15.4 5 Noroeste 16 Noroeste 0 -- -- 81
2020-09-06 19:00:00 16.2 5 Noroeste 17 Noroeste 0 -- -- 80
2020-09-06 18:00:00 17.5 7 Norte 21 Noroeste 0 -- -- 74
2020-09-06 17:00:00 18.7 8 Norte 19 Noroeste 0 -- -- 72
2020-09-06 16:00:00 20.7 9 Noroeste 24 Norte 0 -- -- 63
2020-09-06 15:00:00 20.9 13 Noroeste 28 Noroeste 0 -- -- 63
2020-09-06 14:00:00 19.7 9 Noroeste 21 Noroeste 0 -- -- 67
2020-09-06 13:00:00 17.8 6 Norte 15 Noroeste 0 -- -- 76
2020-09-06 12:00:00 16.2 6 Noroeste 13 Noroeste 0 -- -- 81
2020-09-06 11:00:00 14.4 6 Norte 12 Norte 0 -- -- 91
2020-09-06 10:00:00 13.4 5 Noroeste 11 Noroeste 0.2 -- -- 96
2020-09-06 09:00:00 12.7 5 Norte 11 Norte 0 -- -- 98
2020-09-06 08:00:00 12.9 4 Norte 11 Norte 0 -- -- 99
2020-09-06 07:00:00 13.3 4 Norte 9 Norte 0 -- -- 99
2020-09-06 06:00:00 13.5 5 Norte 10 Nordeste 0 -- -- 99
2020-09-06 05:00:00 13.8 4 Norte 9 Noroeste 0 -- -- 98
2020-09-06 04:00:00 14.1 4 Norte 8 Noroeste 0 -- -- 99
2020-09-06 03:00:00 14.3 3 Norte 7 Norte 0 -- -- 99
2020-09-06 02:00:00 14.4 2 Norte 8 Norte 0 -- -- 99
2020-09-06 01:00:00 14.5 4 Norte 9 Noroeste 0 -- -- 99
2020-09-06 00:00:00 14.7 4 Norte 9 Norte 0 -- -- 98
2020-09-05 23:00:00 14.8 5 Norte 10 Norte 0 -- -- 98
2020-09-05 22:00:00 15 5 Norte 9 Norte 0 -- -- 97
2020-09-05 21:00:00 15.2 4 Norte 12 Noroeste 0 -- -- 97
2020-09-05 20:00:00 15.7 5 Norte 15 Norte 0 -- -- 96
2020-09-05 19:00:00 16.6 5 Norte 14 Noroeste 0 -- -- 92
2020-09-05 18:00:00 17 5 Norte 14 Noroeste 0 -- -- 91
2020-09-05 17:00:00 17.2 5 Norte 12 Norte 0 -- -- 91
2020-09-05 16:00:00 17.3 6 Norte 13 Norte 0 -- -- 87
2020-09-05 15:00:00 18.2 5 Norte 16 Oeste 0 -- -- 84
2020-09-05 14:00:00 18.6 6 Noroeste 15 Noroeste 0 -- -- 82
2020-09-05 13:00:00 18.4 5 Norte 14 Noroeste 0 -- -- 83
2020-09-05 12:00:00 17.9 4 Noroeste 10 Noroeste 0 -- -- 83
2020-09-05 11:00:00 16.9 5 Noroeste 9 Noroeste 0 -- -- 87
2020-09-05 10:00:00 15.9 0 Calma 3 Sudeste 0 -- -- 91
2020-09-05 09:00:00 15.2 0 Calma 3 Sudoeste 0 -- -- 94
2020-09-05 08:00:00 14.9 2 Norte 5 Noroeste 0 -- -- 94
2020-09-05 07:00:00 15.1 2 Noroeste 7 Noroeste 0 -- -- 91
2020-09-05 06:00:00 15 3 Sudeste 8 Sudeste 0 -- -- 88
2020-09-05 05:00:00 14.5 2 Sur 8 Sur 0 -- -- 92
2020-09-05 04:00:00 13 6 Sudeste 10 Sudeste 0 -- -- 95
2020-09-05 03:00:00 12.7 3 Sur 8 Sudeste 0 -- -- 95
2020-09-05 02:00:00 13.6 6 Sudeste 10 Sudeste 0 -- -- 91
2020-09-05 01:00:00 14.3 4 Sudeste 12 Sudeste 0 -- -- 89
2020-09-05 00:00:00 14.8 6 Sudeste 11 Sudeste 0 -- -- 88
2020-09-04 23:00:00 15.8 3 Sudeste 7 Sudeste 0 -- -- 85
2020-09-04 22:00:00 17.9 6 Sudeste 9 Sudeste 0 -- -- 81
2020-09-04 21:00:00 19.7 5 Sudeste 9 Sudeste 0 -- -- 76
2020-09-04 20:00:00 23.2 0 Calma 14 Noroeste 0 -- -- 67
2020-09-04 19:00:00 25.6 5 Noroeste 17 Noroeste 0 -- -- 59
2020-09-04 18:00:00 29.9 5 Oeste 24 Oeste 0 -- -- 40
2020-09-04 17:00:00 31.5 4 Oeste 11 Oeste 0 -- -- 32
2020-09-04 16:00:00 32.1 4 Noroeste 9 Noroeste 0 -- -- 32
2020-09-04 15:00:00 31.8 3 Noroeste 6 Noroeste 0 -- -- 33
2020-09-04 14:00:00 31.1 3 Noroeste -- -- -- -- -- 30
2020-09-04 13:00:00 29.5 3 Oeste -- -- -- -- -- 33
2020-09-04 12:00:00 -- 3 Este -- -- -- -- -- --
2020-09-04 11:00:00 18.5 4 Este 8 Este -- -- -- 78
2020-09-04 10:00:00 12.7 4 Sudeste 12 Sudeste 0 -- -- 92
2020-09-04 09:00:00 11.4 3 Sudeste 10 Sudeste 0 -- -- 93
2020-09-04 08:00:00 10.8 3 Sudeste 7 Sudeste 0 -- -- 94
2020-09-04 07:00:00 11.4 0 Calma 10 Sudeste 0 -- -- 91
2020-09-04 06:00:00 11.7 6 Sudeste 13 Sudeste 0 -- -- 92
2020-09-04 05:00:00 12 6 Sudeste 12 Sudeste 0 -- -- 92
2020-09-04 04:00:00 12.8 5 Sudeste 12 Sudeste 0 -- -- 91
2020-09-04 03:00:00 13.5 6 Sudeste 11 Sudeste 0 -- -- 91
2020-09-04 02:00:00 13.9 5 Sudeste 10 Sudeste 0 -- -- 94
2020-09-04 01:00:00 14.5 4 Sudeste 8 Sudeste 0 -- -- 96
2020-09-04 00:00:00 15.1 4 Sudeste 9 Sudeste 0 -- -- 94
2020-09-03 23:00:00 16 5 Sudeste 8 Sur 0 -- -- 91
2020-09-03 22:00:00 16.9 5 Sudeste 11 Sudeste 0 -- -- 88
2020-09-03 21:00:00 18.4 6 Sudeste 9 Sudeste 0 -- -- 83
2020-09-03 20:00:00 20.7 4 Sudeste 10 Noroeste 0 -- -- 76
2020-09-03 19:00:00 24.5 4 Noroeste 12 Noroeste 0 -- -- 63
2020-09-03 18:00:00 28.4 6 Noroeste 22 Noroeste 0 -- -- 53
2020-09-03 17:00:00 28.9 9 Noroeste 18 Noroeste 0 -- -- 47
2020-09-03 16:00:00 28.8 10 Noroeste 20 Noroeste 0 -- -- 47
2020-09-03 15:00:00 29.2 9 Noroeste 15 Noroeste 0 -- -- 40
2020-09-03 14:00:00 28.5 6 Noroeste 15 Norte -- -- -- 43
2020-09-03 13:00:00 27.1 4 Noroeste 11 Norte -- -- -- 38
2020-09-03 12:00:00 22.6 3 Este 8 Este -- -- -- 69
2020-09-03 11:00:00 16.4 3 Este 6 Sudeste -- -- -- 99
2020-09-03 10:00:00 11.3 2 Este 7 Sudeste -- -- -- 100
2020-09-03 09:00:00 10.2 0 Calma 10 Sudeste -- -- -- 99
2020-09-03 08:00:00 9.7 3 Sudeste 9 Sudeste -- -- -- 98
2020-09-03 07:00:00 9.9 3 Sudeste 9 Sudeste -- -- -- 98
2020-09-03 06:00:00 10 3 Sudeste 7 Sudeste -- -- -- 98
2020-09-03 05:00:00 10.4 4 Sudeste 9 Sudeste -- -- -- 98
2020-09-03 04:00:00 10.9 3 Sudeste 12 Sudeste -- -- -- 97
2020-09-03 03:00:00 11.2 2 Sudeste 10 Sudeste -- -- -- 97
2020-09-03 02:00:00 11.6 4 Sudeste 9 Sudeste -- -- -- 97
2020-09-03 01:00:00 12.4 4 Sudeste 8 Sudeste -- -- -- 97
2020-09-03 00:00:00 13.1 2 Sudeste 8 Sudeste -- -- -- 96
2020-09-02 23:00:00 14 4 Sudeste 8 Sudeste -- -- -- 94
2020-09-02 22:00:00 15.5 4 Sudeste 7 Sudeste -- -- -- 91
2020-09-02 21:00:00 18.3 3 Sur 6 Norte -- -- -- 84
2020-09-02 20:00:00 19.6 4 Norte 14 Noroeste -- -- -- 78
2020-09-02 19:00:00 20.9 8 Noroeste 20 Noroeste -- -- -- 72
2020-09-02 18:00:00 23 9 Noroeste 19 Noroeste -- -- -- 63
2020-09-02 17:00:00 25 9 Noroeste 21 Noroeste -- -- -- 57
2020-09-02 16:00:00 24.7 8 Noroeste 18 Noroeste -- -- -- 55
2020-09-02 15:00:00 23.6 10 Noroeste 20 Noroeste -- -- -- 58
2020-09-02 14:00:00 22.4 9 Noroeste 19 Noroeste -- -- -- 62
2020-09-02 13:00:00 20.9 10 Noroeste 21 Noroeste -- -- -- 63
2020-09-02 12:00:00 18.4 0 Calma 5 Oeste -- -- -- 64
2020-09-02 11:00:00 13.8 2 Este 6 Este -- -- -- 88
2020-09-02 10:00:00 9.3 0 Calma 9 Sudeste -- -- -- 98
2020-09-02 09:00:00 9.1 4 Sudeste 8 Sudeste -- -- -- 95
2020-09-02 08:00:00 9.7 4 Sudeste 9 Sudeste -- -- -- 92
2020-09-02 07:00:00 11.3 4 Sudeste 10 Sudeste -- -- -- 85
2020-09-02 06:00:00 11.7 4 Sudeste 8 Sudeste -- -- -- 85
2020-09-02 05:00:00 11.7 0 Calma 8 Sudeste -- -- -- 90
2020-09-02 04:00:00 11.7 0 Calma 3 Sudeste -- -- -- 92
2020-09-02 03:00:00 12.6 0 Calma 5 Sudeste -- -- -- 91
2020-09-02 02:00:00 13 2 Sudeste 4 Sudeste -- -- -- 88
2020-09-02 01:00:00 13.1 0 Calma 4 Sudeste -- -- -- 95
2020-09-02 00:00:00 13.7 0 Calma 5 Norte -- -- -- 93
2020-09-01 23:00:00 14.2 3 Norte 9 Nordeste -- -- -- 91
2020-09-01 22:00:00 14.5 4 Nordeste 13 Noroeste -- -- -- 88
2020-09-01 21:00:00 15.7 4 Noroeste 14 Noroeste -- -- -- 83
2020-09-01 20:00:00 16.9 6 Norte 17 Noroeste -- -- -- 77
2020-09-01 19:00:00 18.1 7 Norte 21 Noroeste -- -- -- 74
2020-09-01 18:00:00 20.3 6 Noroeste 20 Noroeste -- -- -- 65
2020-09-01 17:00:00 22 9 Noroeste 22 Noroeste -- -- -- 61
2020-09-01 16:00:00 22.7 8 Noroeste 23 Noroeste -- -- -- 59
2020-09-01 15:00:00 22.6 11 Noroeste 24 Noroeste -- -- -- 60
2020-09-01 14:00:00 21.6 11 Noroeste 23 Noroeste -- -- -- 62
2020-09-01 13:00:00 20.2 8 Noroeste 18 Noroeste -- -- -- 65
2020-09-01 12:00:00 18.5 7 Noroeste 15 Noroeste -- -- -- 70
2020-09-01 11:00:00 15.2 3 Norte 7 Oeste -- -- -- 84
2020-09-01 10:00:00 11.6 2 Norte 9 Sudeste -- -- -- 94
2020-09-01 09:00:00 10.2 6 Sudeste 10 Sudeste -- -- -- 95
2020-09-01 08:00:00 9.2 2 Sudeste 6 Sudeste -- -- -- 97
2020-09-01 07:00:00 9.4 4 Sudeste 8 Sudeste -- -- -- 96
2020-09-01 06:00:00 10 4 Sudeste 9 Este -- -- -- 95
2020-09-01 05:00:00 10.4 6 Sudeste 10 Sur -- -- -- 95
2020-09-01 04:00:00 10.3 0 Calma 8 Sudeste -- -- -- 96
2020-09-01 03:00:00 10.4 3 Sudeste 11 Sudeste -- -- -- 96
2020-09-01 02:00:00 10.6 5 Sudeste 8 Sudeste -- -- -- 95
2020-09-01 01:00:00 10.7 2 Sudeste 7 Sudeste -- -- -- 95
2020-09-01 00:00:00 11.4 3 Sudeste 8 Sudeste -- -- -- 94
2020-08-31 23:00:00 12.2 5 Sudeste 9 Sudeste -- -- -- 91
2020-08-31 22:00:00 13.8 0 Calma 8 Sudeste -- -- -- 88
2020-08-31 21:00:00 15.6 4 Sudeste 6 Sudeste -- -- -- 84
2020-08-31 20:00:00 17.8 3 Norte 7 Noroeste -- -- -- 73
2020-08-31 19:00:00 19.2 2 Norte 14 Noroeste -- -- -- 69
2020-08-31 18:00:00 19.5 5 Noroeste 10 Norte -- -- -- 65
2020-08-31 17:00:00 18.9 4 Norte 15 Norte -- -- -- 62
2020-08-31 16:00:00 21.8 0 Calma 12 Noroeste -- -- -- 48
2020-08-31 15:00:00 22.1 5 Noroeste 11 Noroeste -- -- -- 47
2020-08-31 14:00:00 21.5 4 Noroeste 9 Noroeste -- -- -- 48
2020-08-31 13:00:00 21.2 3 Sudeste 10 Este -- -- -- 39
2020-08-31 12:00:00 17.8 3 Noroeste 9 Noroeste -- -- -- 61
2020-08-31 11:00:00 12.2 2 Norte 5 Norte 0 -- -- 100
2020-08-31 10:00:00 -- 0 Calma 3 Este 7.2 -- -- --
2020-08-31 09:00:00 6.6 0 Calma 7 Sudeste 0 -- -- 100
2020-08-31 08:00:00 5.9 2 Norte 8 Sur 0 -- -- 100
2020-08-31 07:00:00 5.8 2 Sudeste 8 Sudeste 0 -- -- 100
2020-08-31 06:00:00 5.3 0 Calma 12 Sudeste 0 -- -- 100
2020-08-31 05:00:00 5.5 4 Sudeste 9 Sudeste 0 -- -- 100
2020-08-31 04:00:00 5.7 4 Sudeste 6 Sudeste 0 -- -- 99
2020-08-31 03:00:00 5.9 3 Sudeste 8 Sudeste 0 -- -- 99
2020-08-31 02:00:00 6.4 5 Sudeste 8 Sudeste 0 -- -- 98
2020-08-31 01:00:00 6.7 3 Sudeste 8 Sudeste 0 -- -- 98
2020-08-31 00:00:00 7.3 2 Sudeste 7 Sudeste 0 -- -- 97
2020-08-30 23:00:00 8.2 2 Sudeste 5 Sudeste 0 -- -- 95
2020-08-30 22:00:00 9.4 3 Sudeste 7 Sudeste 0 -- -- 95
2020-08-30 21:00:00 10 3 Sur 5 Sudeste 0 -- -- 92
2020-08-30 20:00:00 11.7 2 Sur 6 Sur 0 -- -- 86
2020-08-30 19:00:00 13.8 4 Noroeste 12 Norte 0 -- -- 73
2020-08-30 18:00:00 14.4 8 Noroeste 19 Noroeste 0 -- -- 71
2020-08-30 17:00:00 14.8 9 Noroeste 20 Noroeste 0 -- -- 77
2020-08-30 16:00:00 13.8 2 Noroeste 11 Noroeste 0.8 -- -- 81
2020-08-30 15:00:00 13 4 Noroeste 17 Noroeste 0.8 -- -- 86
2020-08-30 14:00:00 13.8 2 Norte 18 Noroeste 0 -- -- 68
2020-08-30 13:00:00 14.1 5 Norte 18 Noroeste 0 -- -- 74
2020-08-30 12:00:00 13.1 5 Norte 13 Norte 0 -- -- 81
2020-08-30 11:00:00 11.7 3 Noroeste 10 Norte 0 -- -- 90
2020-08-30 10:00:00 9.9 2 Noroeste 12 Norte 0.4 -- -- 99
2020-08-30 09:00:00 9.2 5 Norte 11 Norte 0.4 -- -- 100
2020-08-30 08:00:00 9.2 2 Norte 9 Norte 0 -- -- 100
2020-08-30 07:00:00 9.3 7 Norte 13 Norte 4.4 -- -- 100
2020-08-30 06:00:00 9.4 3 Norte 10 Norte 0.8 -- -- 100
2020-08-30 05:00:00 9.4 6 Norte 11 Norte 2 -- -- 100
2020-08-30 04:00:00 9.4 4 Noroeste 6 Noroeste 1.6 -- -- 100
2020-08-30 03:00:00 9.4 0 Calma 3 Noroeste 0 -- -- 100
2020-08-30 02:00:00 9.4 0 Calma 5 Norte 0 -- -- 100
2020-08-30 01:00:00 9.4 3 Norte 10 Norte 0.8 -- -- 100
2020-08-30 00:00:00 9.5 0 Calma 3 Noroeste 0.4 -- -- 100
2020-08-29 23:00:00 9.6 0 Calma 10 Noroeste 0 -- -- 99
2020-08-29 22:00:00 9.8 2 Norte 9 Norte 5.2 -- -- 99
2020-08-29 21:00:00 9.8 0 Calma 9 Oeste 0.4 -- -- 97
2020-08-29 20:00:00 10.3 4 Noroeste 18 Oeste 2 -- -- 93
2020-08-29 19:00:00 10.7 4 Noroeste 17 Norte 4.8 -- -- 98
2020-08-29 18:00:00 11 6 Norte 24 Noroeste 7.2 -- -- 96
2020-08-29 17:00:00 11.2 6 Norte 17 Norte 8.8 -- -- 97
2020-08-29 16:00:00 11.6 9 Norte 23 Norte 2 -- -- 97
2020-08-29 15:00:00 11.3 8 Norte 17 Norte 3.2 -- -- 99
2020-08-29 14:00:00 10.9 4 Noroeste 14 Norte 10 -- -- 99
2020-08-29 13:00:00 10.3 7 Norte 19 Norte 17.2 -- -- 99
2020-08-29 12:00:00 10.6 5 Norte 13 Norte 7.6 -- -- 99
2020-08-29 11:00:00 10.4 7 Norte 17 Norte 6 -- -- 99
2020-08-29 10:00:00 10 7 Norte 16 Norte 10 -- -- 99
2020-08-29 09:00:00 9.8 6 Norte 15 Norte 9.2 -- -- 99
2020-08-29 08:00:00 9.9 7 Norte 15 Noroeste 4.4 -- -- 99
2020-08-29 07:00:00 10.1 8 Norte 22 Norte 7.2 -- -- 98
2020-08-29 06:00:00 10.2 6 Norte 18 Norte 1.2 -- -- 98
2020-08-29 05:00:00 10.2 5 Norte 15 Nordeste 2.4 -- -- 98
2020-08-29 04:00:00 10.3 4 Norte 8 Norte 0.8 -- -- 96
2020-08-29 03:00:00 10.3 4 Norte 8 Norte 0 -- -- 93
2020-08-29 02:00:00 10.1 2 Sur 3 Sur 0 -- -- 93
2020-08-29 01:00:00 10 0 Calma 3 Sudoeste 0 -- -- 92
2020-08-29 00:00:00 11.1 0 Calma 12 Norte 0 -- -- 85
2020-08-28 23:00:00 12.4 4 Norte 21 Noroeste 0 -- -- 80
2020-08-28 22:00:00 12.8 7 Norte 17 Norte 0 -- -- 80
2020-08-28 21:00:00 13.6 8 Norte 22 Noroeste 0 -- -- 78
2020-08-28 20:00:00 14.6 8 Noroeste 24 Oeste 0 -- -- 72
2020-08-28 19:00:00 15.6 5 Norte 15 Noroeste 0 -- -- 72
2020-08-28 18:00:00 16.9 4 Noroeste 18 Noroeste 0 -- -- 66
2020-08-28 17:00:00 18 5 Norte 19 Noroeste 0 -- -- 60
2020-08-28 16:00:00 18.6 6 Noroeste 21 Noroeste 0 -- -- 61
2020-08-28 15:00:00 21.2 10 Noroeste 28 Noroeste 0 -- -- 49
2020-08-28 14:00:00 19 6 Norte 18 Noroeste 0 -- -- 57
2020-08-28 13:00:00 17.7 3 Noroeste 9 Noroeste 0 -- -- 66
2020-08-28 12:00:00 13.9 3 Sudeste 7 Sudeste 0 -- -- 84
2020-08-28 11:00:00 12.9 0 Calma 10 Nordeste 0 -- -- 91
2020-08-28 10:00:00 12.4 6 Norte 16 Norte 2.4 -- -- 97
2020-08-28 09:00:00 13.3 7 Norte 16 Norte 2.8 -- -- 98
2020-08-28 08:00:00 13.8 5 Norte 14 Norte 0.4 -- -- 98
2020-08-28 07:00:00 14.3 6 Norte 13 Norte 0.8 -- -- 97
2020-08-28 06:00:00 15.3 5 Norte 11 Norte 0 -- -- 98
2020-08-28 05:00:00 15.7 3 Norte 8 Norte 0 -- -- 97
2020-08-28 04:00:00 16.1 3 Norte 14 Noroeste 0 -- -- 96
2020-08-28 03:00:00 17.3 5 Norte 13 Noroeste 0 -- -- 93
2020-08-28 02:00:00 18 4 Norte 10 Norte 0 -- -- 93
2020-08-28 01:00:00 18.2 5 Norte 13 Norte 0 -- -- 93
2020-08-28 00:00:00 18.8 6 Norte 12 Nordeste 0 -- -- 91
2020-08-27 23:00:00 19.2 6 Norte 14 Norte 0 -- -- 89
2020-08-27 22:00:00 20 4 Norte 13 Norte 0 -- -- 87
2020-08-27 21:00:00 20.7 6 Norte 13 Norte 0 -- -- 84
2020-08-27 20:00:00 22.1 5 Norte 17 Noroeste 0 -- -- 79
2020-08-27 19:00:00 24 8 Norte 20 Noroeste 0 -- -- 73
2020-08-27 18:00:00 26.5 7 Noroeste 26 Noroeste 0 -- -- 66
2020-08-27 17:00:00 27.7 8 Norte 23 Noroeste 0 -- -- 61
2020-08-27 16:00:00 28.8 10 Noroeste 25 Noroeste 0 -- -- 57
2020-08-27 15:00:00 29.2 10 Noroeste 23 Noroeste 0 -- -- 54
2020-08-27 14:00:00 28.7 9 Noroeste 20 Noroeste 0 -- -- 53
2020-08-27 13:00:00 27.7 8 Noroeste 21 Noroeste 0 -- -- 54
2020-08-27 12:00:00 26.1 7 Noroeste 13 Noroeste 0 -- -- 58
2020-08-27 11:00:00 19.8 3 Este 9 Este 0 -- -- 87
2020-08-27 10:00:00 15.2 3 Sudeste 10 Sudeste 0 -- -- 99
2020-08-27 09:00:00 14.3 4 Sudeste 11 Sudeste 0 -- -- 97
2020-08-27 08:00:00 14 5 Sudeste 8 Este 0 -- -- 97
2020-08-27 07:00:00 14.6 0 Calma 9 Sudeste 0 -- -- 96
2020-08-27 06:00:00 15.7 4 Sudeste 8 Sudeste 0 -- -- 95
2020-08-27 05:00:00 17.1 0 Calma 8 Sudeste 0 -- -- 96
2020-08-27 04:00:00 16.8 4 Sudeste 8 Sudeste 0 -- -- 95
2020-08-27 03:00:00 16.8 4 Sudeste 6 Sudeste 0 -- -- 94
2020-08-27 02:00:00 18.7 2 Sudeste 10 Sudeste 0 -- -- 91
2020-08-27 01:00:00 19.9 3 Sudeste 5 Sudeste 0 -- -- 91
2020-08-27 00:00:00 20.3 0 Calma 8 Norte 0 -- -- 90
2020-08-26 23:00:00 20.6 0 Calma 6 Norte 0 -- -- 89
2020-08-26 22:00:00 21 2 Norte 5 Noroeste 0 -- -- 87
2020-08-26 21:00:00 21.9 3 Norte 11 Noroeste 0 -- -- 83
2020-08-26 20:00:00 22.8 6 Norte 14 Nordeste 0 -- -- 78
2020-08-26 19:00:00 23.9 6 Norte 19 Norte 0 -- -- 73
2020-08-26 18:00:00 26.2 9 Norte 23 Noroeste 0 -- -- 66
2020-08-26 17:00:00 28.8 11 Noroeste 23 Noroeste 0 -- -- 56
2020-08-26 16:00:00 29 9 Noroeste 26 Noroeste 0 -- -- 54
2020-08-26 15:00:00 28.6 9 Noroeste 22 Noroeste 0 -- -- 52
2020-08-26 14:00:00 27.6 9 Noroeste 22 Noroeste 0 -- -- 50
2020-08-26 13:00:00 26.4 8 Noroeste 16 Noroeste 0 -- -- 51
2020-08-26 12:00:00 24.1 5 Noroeste 13 Noroeste 0 -- -- 60
2020-08-26 11:00:00 19.4 4 Este 8 Nordeste 0 -- -- 81
2020-08-26 10:00:00 14.8 3 Este 8 Sudeste 0 -- -- 93
2020-08-26 09:00:00 15.5 4 Sudeste 14 Sudeste 0 -- -- 86
2020-08-26 08:00:00 16.1 5 Sudeste 9 Sudeste 0 -- -- 82
2020-08-26 07:00:00 16 5 Sudeste 10 Sudeste 0 -- -- 86
2020-08-26 06:00:00 15.5 7 Sudeste 13 Sudeste 0 -- -- 87
2020-08-26 05:00:00 15.7 8 Sudeste 14 Sudeste 0 -- -- 86
2020-08-26 04:00:00 16.6 4 Sudeste 13 Sudeste 0 -- -- 86
2020-08-26 03:00:00 16.8 4 Sudeste 9 Sudeste 0 -- -- 86
2020-08-26 02:00:00 18.2 0 Calma 4 Sudeste 0 -- -- 91
2020-08-26 01:00:00 18.5 0 Calma 3 Noroeste 0 -- -- 91
2020-08-26 00:00:00 18.5 0 Calma 6 Norte 0 -- -- 90
2020-08-25 23:00:00 18.5 3 Sudeste 5 Sudeste 0 -- -- 87
2020-08-25 22:00:00 19.6 2 Norte 10 Norte 0 -- -- 83
2020-08-25 21:00:00 20.9 4 Norte 15 Norte 0 -- -- 77
2020-08-25 20:00:00 22.9 6 Noroeste 19 Noroeste 0 -- -- 68
2020-08-25 19:00:00 27.3 9 Noroeste 22 Noroeste 0 -- -- 53
2020-08-25 18:00:00 29.6 7 Noroeste 18 Noroeste 0 -- -- 47
2020-08-25 17:00:00 30.1 8 Noroeste 22 Noroeste 0 -- -- 43
2020-08-25 16:00:00 29.5 10 Noroeste 23 Noroeste 0 -- -- 42
2020-08-25 15:00:00 29.4 11 Noroeste 23 Noroeste 0 -- -- 44
2020-08-25 14:00:00 29 8 Noroeste 20 Noroeste 0 -- -- 43
2020-08-25 13:00:00 27.4 9 Noroeste 21 Noroeste 0 -- -- 46
2020-08-25 12:00:00 25.3 8 Noroeste 13 Noroeste 0 -- -- 54
2020-08-25 11:00:00 18.5 3 Este 5 Nordeste 0 -- -- 81
2020-08-25 10:00:00 12.6 2 Sudeste 11 Sudeste 0 -- -- 93
2020-08-25 09:00:00 12 7 Sudeste 12 Sudeste 0 -- -- 89
2020-08-25 08:00:00 12.1 7 Sudeste 12 Sudeste 0 -- -- 87
2020-08-25 07:00:00 11.9 3 Sudeste 11 Sudeste 0 -- -- 90
2020-08-25 06:00:00 12.4 5 Sudeste 11 Sudeste 0 -- -- 88
2020-08-25 05:00:00 12.6 2 Sur 12 Sudeste 0 -- -- 90
2020-08-25 04:00:00 13 2 Sudeste 9 Sudeste 0 -- -- 90
2020-08-25 03:00:00 13.3 3 Sudeste 12 Sudeste 0 -- -- 90
2020-08-25 02:00:00 13.8 4 Sudeste 10 Sudeste 0 -- -- 90
2020-08-25 01:00:00 14.4 6 Sudeste 11 Sudeste 0 -- -- 91
2020-08-25 00:00:00 15.3 5 Sudeste 10 Sudeste 0 -- -- 91
2020-08-24 23:00:00 16 5 Sudeste 9 Sudeste 0 -- -- 91
2020-08-24 22:00:00 17.4 5 Sudeste 8 Sudeste 0 -- -- 88
2020-08-24 21:00:00 19.6 3 Sudeste 6 Sudeste 0 -- -- 81
2020-08-24 20:00:00 23 3 Noroeste 17 Noroeste 0 -- -- 68
2020-08-24 19:00:00 27.4 5 Norte 16 Noroeste 0 -- -- 56
2020-08-24 18:00:00 28.4 9 Noroeste 22 Noroeste 0 -- -- 51
2020-08-24 17:00:00 28.5 7 Noroeste 18 Noroeste 0 -- -- 47
2020-08-24 16:00:00 27.6 7 Noroeste 20 Noroeste 0 -- -- 48
2020-08-24 15:00:00 26.8 9 Noroeste 18 Noroeste 0 -- -- 43
2020-08-24 14:00:00 24.7 5 Noroeste 17 Noroeste 0 -- -- 53
2020-08-24 13:00:00 23.3 7 Noroeste 15 Noroeste 0 -- -- 56
2020-08-24 12:00:00 20.8 4 Noroeste 8 Norte 0 -- -- 66
2020-08-24 11:00:00 16.8 4 Este 8 Este 0 -- -- 88
2020-08-24 10:00:00 12.9 3 Este 9 Este 0 -- -- 97
2020-08-24 09:00:00 12.6 3 Sudeste 9 Sudeste 0 -- -- 95
2020-08-24 08:00:00 13.5 5 Este 11 Sudeste 0 -- -- 94
2020-08-24 07:00:00 13.6 4 Sudeste 9 Sur 0 -- -- 94
2020-08-24 06:00:00 14.6 3 Sudeste 5 Sudeste 0 -- -- 96
2020-08-24 05:00:00 14.9 2 Norte 8 Norte 0 -- -- 98
2020-08-24 04:00:00 15.1 0 Calma 6 Noroeste 0 -- -- 98
2020-08-24 03:00:00 15.1 2 Noroeste 5 Noroeste 0 -- -- 98
2020-08-24 02:00:00 15.3 3 Norte 8 Norte 0 -- -- 98
2020-08-24 01:00:00 15.4 3 Norte 6 Noroeste 0 -- -- 97
2020-08-24 00:00:00 15.8 4 Norte 8 Norte 0 -- -- 94
2020-08-23 23:00:00 16.4 4 Norte 11 Noroeste 0 -- -- 90
2020-08-23 22:00:00 17.1 5 Norte 14 Norte 0 -- -- 86
2020-08-23 21:00:00 18.1 7 Norte 18 Norte 0 -- -- 82
2020-08-23 20:00:00 20.3 8 Norte 23 Norte 0 -- -- 74
2020-08-23 19:00:00 23.3 9 Norte 23 Noroeste 0 -- -- 64
2020-08-23 18:00:00 23.9 9 Norte 24 Noroeste 0 -- -- 59
2020-08-23 17:00:00 25.5 10 Noroeste 23 Noroeste 0 -- -- 52
2020-08-23 16:00:00 25.5 9 Noroeste 20 Noroeste 0 -- -- 48
2020-08-23 15:00:00 24.7 9 Noroeste 23 Noroeste 0 -- -- 49
2020-08-23 14:00:00 24.3 10 Noroeste 21 Noroeste 0 -- -- 43
2020-08-23 13:00:00 22.6 6 Noroeste 11 Noroeste 0 -- -- 49
2020-08-23 12:00:00 19.6 5 Noroeste 10 Noroeste 0 -- -- 59
2020-08-23 11:00:00 16.1 3 Noroeste 7 Noroeste 0 -- -- 75
2020-08-23 10:00:00 10.9 2 Este 9 Sudeste 0 -- -- 96
2020-08-23 09:00:00 10.3 6 Sudeste 9 Sudeste 0 -- -- 90
2020-08-23 08:00:00 11.2 5 Sudeste 12 Sur 0 -- -- 85
2020-08-23 07:00:00 12.7 6 Sudeste 13 Sur 0 -- -- 79
2020-08-23 06:00:00 12.6 8 Sudeste 14 Sudeste 0 -- -- 81
2020-08-23 05:00:00 12.4 6 Sudeste 12 Sudeste 0 -- -- 84
2020-08-23 04:00:00 12.7 6 Sudeste 11 Sudeste 0 -- -- 88
2020-08-23 03:00:00 13.5 4 Sudeste 8 Sudeste 0 -- -- 92
2020-08-23 02:00:00 14.6 0 Calma 2 Oeste 0 -- -- 92
2020-08-23 01:00:00 15 0 Calma 3 Noroeste 0 -- -- 92
2020-08-23 00:00:00 15.2 0 Calma 6 Norte 0 -- -- 91
2020-08-22 23:00:00 15.6 4 Norte 9 Noroeste 0 -- -- 87
2020-08-22 22:00:00 16 4 Norte 14 Norte 0 -- -- 85
2020-08-22 21:00:00 16.7 6 Norte 13 Norte 0 -- -- 81
2020-08-22 20:00:00 17.7 4 Noroeste 15 Norte 0 -- -- 78
2020-08-22 19:00:00 19.2 7 Norte 17 Noroeste 0 -- -- 74
2020-08-22 18:00:00 21.3 8 Noroeste 20 Noroeste 0 -- -- 67
2020-08-22 17:00:00 21.6 7 Norte 20 Noroeste 0 -- -- 64
2020-08-22 16:00:00 21.8 6 Norte 25 Noroeste 0 -- -- 63
2020-08-22 15:00:00 23.4 10 Noroeste 24 Noroeste 0 -- -- 60
2020-08-22 14:00:00 23.6 13 Noroeste 23 Noroeste 0 -- -- 60
2020-08-22 13:00:00 22.4 9 Noroeste 19 Noroeste 0 -- -- 64
2020-08-22 12:00:00 20.9 5 Norte 12 Noroeste 0 -- -- 65
2020-08-22 11:00:00 18.1 3 Norte 10 Norte 0 -- -- 76
2020-08-22 10:00:00 16 5 Norte 12 Noroeste 0 -- -- 89
2020-08-22 09:00:00 14.9 3 Noroeste 10 Noroeste 0 -- -- 94
2020-08-22 08:00:00 14.6 5 Norte 11 Norte 0 -- -- 96
2020-08-22 07:00:00 14.7 2 Norte 9 Norte 0 -- -- 96
2020-08-22 06:00:00 15 3 Norte 9 Norte 0 -- -- 97
2020-08-22 05:00:00 15.1 5 Norte 11 Norte 0 -- -- 96
2020-08-22 04:00:00 15.3 2 Noroeste 6 Noroeste 0 -- -- 94
2020-08-22 03:00:00 15.4 0 Calma 5 Noroeste 0 -- -- 93
2020-08-22 02:00:00 15.5 3 Norte 9 Norte 0 -- -- 92
2020-08-22 01:00:00 15.9 0 Calma 7 Noroeste 0 -- -- 89
2020-08-22 00:00:00 16.1 4 Norte 10 Noroeste 0 -- -- 88
2020-08-21 23:00:00 16.8 4 Norte 13 Norte 0 -- -- 85
2020-08-21 22:00:00 17.4 5 Norte 13 Norte 0 -- -- 84
2020-08-21 21:00:00 18.5 6 Norte 14 Noroeste 0 -- -- 80
2020-08-21 20:00:00 20 5 Norte 19 Noroeste 0 -- -- 74
2020-08-21 19:00:00 20.2 6 Norte 16 Noroeste 0 -- -- 74
2020-08-21 18:00:00 21.2 7 Norte 21 Norte 0 -- -- 71
2020-08-21 17:00:00 23 10 Norte 24 Oeste 0 -- -- 65
2020-08-21 16:00:00 25.9 9 Noroeste 28 Noroeste 0 -- -- 55
2020-08-21 15:00:00 25.6 8 Norte 29 Noroeste 0 -- -- 56
2020-08-21 14:00:00 25 9 Noroeste 21 Noroeste 0 -- -- 54
2020-08-21 13:00:00 24.1 9 Noroeste 19 Noroeste 0 -- -- 56
2020-08-21 12:00:00 22.4 8 Noroeste 15 Noroeste 0 -- -- 59
2020-08-21 11:00:00 19.1 5 Noroeste 9 Noroeste 0 -- -- 76
2020-08-21 10:00:00 15.3 2 Norte 6 Noroeste 0 -- -- 96
2020-08-21 09:00:00 15 0 Calma 9 Norte 0 -- -- 98
2020-08-21 08:00:00 14.6 6 Noroeste 14 Oeste 0 -- -- 98
2020-08-21 07:00:00 14.6 6 Noroeste 13 Noroeste 0 -- -- 98
2020-08-21 06:00:00 15 2 Noroeste 8 Norte 0 -- -- 97
2020-08-21 05:00:00 15.3 4 Norte 9 Norte 0 -- -- 94
2020-08-21 04:00:00 16.1 3 Noroeste 7 Noroeste 0 -- -- 93
2020-08-21 03:00:00 16.5 2 Norte 8 Noroeste 0 -- -- 85
2020-08-21 02:00:00 18.9 4 Noroeste 21 Sudeste 0 -- -- 71
2020-08-21 01:00:00 19.7 3 Sudeste 20 Sudeste 0 -- -- 65
2020-08-21 00:00:00 18 3 Sudeste 10 Sudeste 0 -- -- 73